Time;durP1;ratioP1;P1;durP2;ratioP2;P2;SDS_P1;SDS_P2;PMS_P1;PMS_P2;Temp;Humidity;BMP_temperature;BMP_pressure;BME280_temperature;BME280_humidity;BME280_pressure;Samples;Min_cycle;Max_cycle;Signal;HPM_P1;HPM_P2
2022/08/09 00:01:48;;;;;;;6.50;4.30;;;;;;;25.66;100.00;152492.50;5112551;28;20463;-62
2022/08/09 00:04:17;;;;;;;5.07;4.70;;;;;;;25.61;100.00;152480.97;5112331;28;20179;-61
2022/08/09 00:06:45;;;;;;;5.05;4.50;;;;;;;25.57;100.00;152470.75;5112334;28;20226;-61
2022/08/09 00:09:13;;;;;;;5.60;5.03;;;;;;;25.55;100.00;152464.34;5112321;28;20222;-62
2022/08/09 00:11:40;;;;;;;9.52;4.78;;;;;;;25.45;100.00;152441.34;5112711;28;20195;-61
2022/08/09 00:14:08;;;;;;;10.10;4.68;;;;;;;25.35;100.00;152414.47;5111988;28;20681;-63
2022/08/09 00:16:35;;;;;;;5.00;4.80;;;;;;;25.47;100.00;152445.13;5111955;28;20183;-62
2022/08/09 00:19:02;;;;;;;5.05;4.75;;;;;;;25.43;100.00;152434.91;5111851;28;20294;-62
2022/08/09 00:21:31;;;;;;;4.90;4.28;;;;;;;25.20;100.00;152376.16;5112340;28;20236;-61
2022/08/09 00:23:58;;;;;;;7.22;4.25;;;;;;;24.98;100.00;152322.50;5112062;28;20240;-62
2022/08/09 00:26:25;;;;;;;6.32;5.38;;;;;;;25.09;100.00;152349.31;5111938;28;20308;-63
2022/08/09 00:28:53;;;;;;;5.32;4.88;;;;;;;25.09;100.00;152349.31;5111928;28;20187;-63
2022/08/09 00:31:21;;;;;;;5.78;4.97;;;;;;;25.11;100.00;152353.16;5112280;28;20189;-62
2022/08/09 00:33:48;;;;;;;4.97;4.57;;;;;;;25.13;100.00;152358.25;5112332;28;20214;-62
2022/08/09 00:36:16;;;;;;;5.38;4.90;;;;;;;25.01;100.00;152328.88;5112062;28;20187;-62
2022/08/09 00:38:45;;;;;;;6.85;5.35;;;;;;;24.98;100.00;152322.50;5111867;28;20306;-63
2022/08/09 00:41:12;;;;;;;5.43;4.95;;;;;;;24.95;100.00;152314.81;5111715;28;20179;-62
2022/08/09 00:43:41;;;;;;;6.10;5.07;;;;;;;24.92;100.00;152307.16;5112023;28;20183;-62
2022/08/09 00:46:09;;;;;;;6.78;5.20;;;;;;;24.93;100.00;152308.44;5111786;28;20184;-62
2022/08/09 00:48:37;;;;;;;5.25;4.80;;;;;;;24.89;100.00;152299.50;5111778;28;20181;-62
2022/08/09 00:51:06;;;;;;;5.47;5.07;;;;;;;24.91;100.00;152304.59;5111966;28;20534;-62
2022/08/09 00:53:33;;;;;;;5.30;4.80;;;;;;;24.87;100.00;152294.38;5111649;28;20184;-62
2022/08/09 00:56:02;;;;;;;5.63;5.25;;;;;;;24.81;100.00;152277.75;5113999;28;20183;-61
2022/08/09 00:58:33;;;;;;;5.47;5.00;;;;;;;24.84;100.00;152285.41;5116170;28;20685;-62
2022/08/09 01:01:00;;;;;;;5.50;4.97;;;;;;;24.78;100.00;152271.34;5115458;28;20238;-62
2022/08/09 01:03:39;;;;;;;5.40;4.82;;;;;;;24.72;100.00;152256.03;5115521;28;20188;-62
2022/08/09 01:06:11;;;;;;;5.57;5.18;;;;;;;24.71;100.00;152252.19;5115749;28;20210;-62
2022/08/09 01:08:46;;;;;;;6.07;5.22;;;;;;;24.83;100.00;152282.84;5115710;28;20183;-62
2022/08/09 01:11:36;;;;;;;7.22;5.13;;;;;;;24.72;100.00;152254.75;5115327;28;20240;-62
2022/08/09 01:14:07;;;;;;;5.40;5.03;;;;;;;24.82;100.00;152281.59;5115202;28;20231;-61
2022/08/09 01:16:39;;;;;;;5.57;5.18;;;;;;;24.80;100.00;152276.47;5115415;28;20183;-62
2022/08/09 01:19:14;;;;;;;5.28;4.88;;;;;;;24.83;100.00;152282.84;5115178;28;20298;-61
2022/08/09 01:21:51;;;;;;;6.40;4.65;;;;;;;24.85;100.00;152287.97;5115574;28;20195;-61
2022/08/09 01:24:31;;;;;;;10.07;5.70;;;;;;;24.70;100.00;152250.91;5115520;28;20694;-62
2022/08/09 01:27:06;;;;;;;8.80;4.80;;;;;;;24.62;100.00;152230.47;5115247;28;20236;-61
2022/08/09 01:29:37;;;;;;;6.00;5.40;;;;;;;24.74;100.00;152261.13;5115052;28;20192;-63
2022/08/09 01:32:08;;;;;;;5.32;4.95;;;;;;;24.70;100.00;152250.91;5115012;28;20188;-62
2022/08/09 01:34:38;;;;;;;5.63;4.82;;;;;;;24.58;100.00;152220.25;5115250;28;20179;-62
2022/08/09 01:37:09;;;;;;;6.05;5.55;;;;;;;24.72;100.00;152254.75;5114949;28;20222;-62
2022/08/09 01:39:38;;;;;;;7.78;5.28;;;;;;;24.78;100.00;152271.34;5114785;28;20222;-62
2022/08/09 01:42:08;;;;;;;4.78;4.57;;;;;;;24.77;100.00;152268.81;5114905;28;20222;-62
2022/08/09 01:44:37;;;;;;;5.57;5.13;;;;;;;24.76;100.00;152266.25;5114750;28;20179;-62
2022/08/09 01:47:06;;;;;;;5.18;4.97;;;;;;;24.74;100.00;152259.88;5114593;28;20196;-61
2022/08/09 01:49:36;;;;;;;4.70;4.40;;;;;;;24.76;100.00;152266.25;5114987;28;20535;-62
2022/08/09 01:52:09;;;;;;;5.43;5.03;;;;;;;24.74;100.00;152261.13;5114622;28;20187;-62
2022/08/09 01:54:39;;;;;;;5.40;5.00;;;;;;;24.78;100.00;152271.34;5114888;28;20543;-63
2022/08/09 01:57:11;;;;;;;5.68;5.10;;;;;;;24.82;100.00;152281.59;5114504;28;20202;-62
2022/08/09 01:59:41;;;;;;;6.13;4.93;;;;;;;24.77;100.00;152268.81;5114479;28;20249;-62
2022/08/09 02:02:11;;;;;;;5.18;4.68;;;;;;;24.75;100.00;152263.69;5114475;28;20638;-62
2022/08/09 02:04:39;;;;;;;6.80;5.00;;;;;;;24.78;100.00;152271.34;5096185;28;20197;-62
2022/08/09 02:07:10;;;;;;;5.00;4.70;;;;;;;24.78;100.00;152271.34;5114097;28;20275;-62
2022/08/09 02:09:41;;;;;;;4.75;4.55;;;;;;;24.79;100.00;152273.91;5114175;28;20187;-62
2022/08/09 02:12:12;;;;;;;5.00;4.70;;;;;;;24.82;100.00;152281.59;5114085;28;20187;-62
2022/08/09 02:14:42;;;;;;;5.75;4.88;;;;;;;24.87;100.00;152294.38;5114188;28;20234;-62
2022/08/09 02:17:12;;;;;;;5.43;5.13;;;;;;;24.81;100.00;152277.75;5114030;28;20184;-61
2022/08/09 02:19:40;;;;;;;4.65;4.45;;;;;;;24.78;100.00;152270.09;5114316;28;20210;-62
2022/08/09 02:22:13;;;;;;;5.82;5.18;;;;;;;24.65;100.00;152238.16;5113947;28;20278;-62
2022/08/09 02:24:46;;;;;;;5.93;5.32;;;;;;;24.76;100.00;152264.97;5113985;28;20194;-62
2022/08/09 02:27:18;;;;;;;6.57;4.70;;;;;;;24.66;100.00;152240.69;5114171;28;20614;-63
2022/08/09 02:29:49;;;;;;;7.90;5.70;;;;;;;24.59;100.00;152222.81;5113809;28;20188;-62
2022/08/09 02:32:20;;;;;;;5.38;5.03;;;;;;;24.55;100.00;152213.91;5113852;28;20198;-62
2022/08/09 02:34:54;;;;;;;5.00;4.80;;;;;;;24.61;100.00;152227.97;5113815;28;20197;-62
2022/08/09 02:37:23;;;;;;;6.30;5.78;;;;;;;24.62;100.00;152230.47;5113824;28;20180;-62
2022/08/09 02:39:56;;;;;;;5.35;5.03;;;;;;;24.55;100.00;152212.59;5113828;28;20620;-62
2022/08/09 02:42:30;;;;;;;5.60;5.40;;;;;;;24.32;100.00;152153.84;5114030;28;20218;-62
2022/08/09 02:45:03;;;;;;;6.03;5.82;;;;;;;24.41;100.00;152178.13;5113586;28;20187;-62
2022/08/09 02:47:32;;;;;;;6.10;5.50;;;;;;;24.42;100.00;152179.41;5113542;28;20274;-61
2022/08/09 02:50:04;;;;;;;6.07;5.88;;;;;;;24.31;100.00;152152.63;5113544;28;20232;-63
2022/08/09 02:52:38;;;;;;;6.13;5.65;;;;;;;24.21;100.00;152127.06;5113521;28;20183;-62
2022/08/09 02:55:07;;;;;;;6.38;5.82;;;;;;;24.25;100.00;152136.00;5113528;28;20198;-62
2022/08/09 02:57:37;;;;;;;6.05;5.68;;;;;;;24.20;100.00;152123.22;5113800;28;20249;-62
2022/08/09 03:00:08;;;;;;;6.10;5.72;;;;;;;24.04;100.00;152084.88;5113778;28;20211;-62
2022/08/09 03:02:37;;;;;;;5.68;5.20;;;;;;;24.07;100.00;152092.53;5113718;28;20286;-63
2022/08/09 03:05:08;;;;;;;6.63;6.38;;;;;;;24.03;100.00;152082.31;5113909;28;20192;-62
2022/08/09 03:07:36;;;;;;;8.80;5.85;;;;;;;24.05;100.00;152087.44;5113322;28;20183;-61
2022/08/09 03:10:05;;;;;;;5.90;5.60;;;;;;;23.95;100.00;152061.91;5113669;28;20176;-63
2022/08/09 03:12:34;;;;;;;6.78;6.25;;;;;;;23.99;100.00;152070.81;5113409;28;20550;-62
2022/08/09 03:15:03;;;;;;;6.28;5.88;;;;;;;23.92;100.00;152054.25;5095608;28;20215;-62
2022/08/09 03:17:32;;;;;;;7.07;6.50;;;;;;;23.96;100.00;152064.47;5113238;28;20210;-61
2022/08/09 03:20:01;;;;;;;6.75;6.38;;;;;;;23.82;100.00;152028.69;5112866;28;20264;-62
2022/08/09 03:22:30;;;;;;;8.10;6.47;;;;;;;23.83;100.00;152031.28;5113446;28;20232;-63
2022/08/09 03:24:58;;;;;;;6.90;6.68;;;;;;;23.87;100.00;152040.19;5113340;28;20183;-63
2022/08/09 03:27:26;;;;;;;6.47;6.15;;;;;;;23.83;100.00;152031.28;5113401;28;20195;-62
2022/08/09 03:29:56;;;;;;;7.05;6.50;;;;;;;23.64;100.00;151984.03;5113063;28;20616;-62
2022/08/09 03:32:26;;;;;;;6.85;6.53;;;;;;;23.53;100.00;151955.97;5113007;28;20290;-62
2022/08/09 03:34:54;;;;;;;6.93;6.57;;;;;;;23.68;100.00;151992.94;5112915;28;20558;-62
2022/08/09 03:37:21;;;;;;;7.28;6.57;;;;;;;23.61;100.00;151975.09;5112733;28;20279;-62
2022/08/09 03:39:48;;;;;;;6.90;6.25;;;;;;;23.73;100.00;152005.72;5112671;28;20203;-62
2022/08/09 03:42:15;;;;;;;9.73;7.32;;;;;;;23.99;100.00;152070.81;5113220;28;20187;-62
2022/08/09 03:44:43;;;;;;;6.93;6.45;;;;;;;24.07;100.00;152091.25;5112957;28;20183;-61
2022/08/09 03:47:10;;;;;;;7.00;6.65;;;;;;;24.28;100.00;152143.63;5112869;28;20195;-62
2022/08/09 03:49:40;;;;;;;6.75;6.45;;;;;;;24.46;100.00;152189.63;5112930;28;20193;-61
2022/08/09 03:52:08;;;;;;;7.63;6.88;;;;;;;24.54;100.00;152211.31;5112814;28;20184;-62
2022/08/09 03:54:38;;;;;;;6.63;6.18;;;;;;;24.68;100.00;152244.53;5112510;28;20187;-62
2022/08/09 03:57:09;;;;;;;6.63;6.40;;;;;;;24.71;100.00;152253.47;5112833;28;20259;-62
2022/08/09 03:59:36;;;;;;;8.75;6.47;;;;;;;24.48;100.00;152194.75;5112490;28;20207;-62
2022/08/09 04:02:04;;;;;;;7.28;6.80;;;;;;;24.42;100.00;152179.41;5112566;28;20183;-61
2022/08/09 04:04:32;;;;;;;6.75;6.45;;;;;;;24.76;100.00;152266.25;5113168;28;20248;-61
2022/08/09 04:07:02;;;;;;;9.75;6.18;;;;;;;24.90;100.00;152300.78;5113022;28;20253;-62
2022/08/09 04:09:29;;;;;;;7.10;6.35;;;;;;;24.98;100.00;152321.22;5112637;28;20211;-62
2022/08/09 04:12:06;;;;;;;6.60;6.22;;;;;;;25.09;100.00;152348.03;5112423;28;20180;-62
2022/08/09 04:14:33;;;;;;;6.70;6.38;;;;;;;25.05;100.00;152337.81;5112254;28;20578;-62
2022/08/09 04:17:00;;;;;;;7.20;6.45;;;;;;;25.27;100.00;152394.03;5112149;28;20184;-62
2022/08/09 04:19:27;;;;;;;6.47;6.05;;;;;;;25.48;100.00;152447.72;5112709;28;20600;-61
2022/08/09 04:21:54;;;;;;;6.95;6.55;;;;;;;25.44;100.00;152437.50;5112750;28;20234;-62
2022/08/09 04:24:24;;;;;;;6.88;6.25;;;;;;;25.56;100.00;152468.19;5112328;28;20209;-61
2022/08/09 04:26:51;;;;;;;6.72;6.32;;;;;;;25.85;100.00;152541.03;5112177;28;20266;-60
2022/08/09 04:29:18;;;;;;;6.80;6.40;;;;;;;25.74;100.00;152512.94;5112873;28;20175;-62
2022/08/09 04:31:45;;;;;;;6.97;6.40;;;;;;;25.80;100.00;152529.53;5116540;28;20232;-61
2022/08/09 04:34:12;;;;;;;6.65;6.25;;;;;;;26.10;100.00;152603.66;5116182;28;20183;-61
2022/08/09 04:36:40;;;;;;;7.10;6.57;;;;;;;26.08;100.00;152598.56;5116682;28;20551;-62
2022/08/09 04:39:08;;;;;;;6.78;6.25;;;;;;;26.35;100.00;152668.91;5116696;28;20199;-61
2022/08/09 04:41:38;;;;;;;6.60;6.30;;;;;;;26.49;100.00;152703.44;5116455;28;20552;-61
2022/08/09 04:44:05;;;;;;;6.78;6.38;;;;;;;26.01;100.00;152580.69;5116299;28;20186;-61
2022/08/09 04:46:33;;;;;;;6.50;6.20;;;;;;;26.62;100.00;152736.69;5116400;28;20406;-61
2022/08/09 04:49:00;;;;;;;7.75;6.13;;;;;;;26.73;100.00;152763.56;5116422;28;20600;-62
2022/08/09 04:51:27;;;;;;;7.03;6.45;;;;;;;27.10;100.00;152856.97;5116084;28;20244;-61
2022/08/09 04:53:54;;;;;;;8.40;6.15;;;;;;;26.66;100.00;152746.94;5116158;28;20183;-61
2022/08/09 04:56:21;;;;;;;6.75;6.20;;;;;;;26.82;100.00;152787.84;5115982;28;20187;-62
2022/08/09 04:58:50;;;;;;;7.18;6.20;;;;;;;26.80;100.00;152781.47;5116340;28;20222;-61
2022/08/09 05:01:17;;;;;;;8.38;6.40;;;;;;;26.98;100.00;152826.28;5116060;28;20187;-61
2022/08/09 05:03:44;;;;;;;7.63;6.93;;;;;;;26.88;100.00;152800.69;5116322;28;20207;-61
2022/08/09 05:06:11;;;;;;;6.82;6.57;;;;;;;26.73;100.00;152763.56;5115979;28;20188;-61
2022/08/09 05:08:38;;;;;;;6.90;6.53;;;;;;;27.11;100.00;152860.84;5113284;28;20611;-63
2022/08/09 05:11:06;;;;;;;6.75;6.40;;;;;;;27.04;100.00;152841.59;5115567;28;20186;-61
2022/08/09 05:13:34;;;;;;;6.03;5.72;;;;;;;27.23;100.00;152891.53;5115458;28;20370;-61
2022/08/09 05:16:03;;;;;;;7.43;6.75;;;;;;;27.22;100.00;152887.66;5115361;28;20180;-62
2022/08/09 05:18:32;;;;;;;7.13;6.68;;;;;;;27.31;100.00;152910.69;5115832;28;20184;-61
2022/08/09 05:20:59;;;;;;;6.35;5.82;;;;;;;27.23;100.00;152891.53;5116236;28;20262;-61
2022/08/09 05:23:26;;;;;;;6.10;5.60;;;;;;;27.67;100.00;153001.56;5115548;28;20244;-60
2022/08/09 05:25:53;;;;;;;6.07;5.70;;;;;;;27.89;100.00;153056.59;5115528;28;20217;-60
2022/08/09 05:28:21;;;;;;;9.43;5.80;;;;;;;27.96;100.00;153074.56;5115176;28;20183;-61
2022/08/09 05:30:48;;;;;;;8.75;6.05;;;;;;;28.02;100.00;153089.88;5115555;28;20645;-61
2022/08/09 05:33:17;;;;;;;5.82;5.32;;;;;;;27.84;100.00;153043.84;5115379;28;20599;-62
2022/08/09 05:35:44;;;;;;;5.72;5.40;;;;;;;28.16;100.00;153125.78;5115383;28;20629;-62
2022/08/09 05:38:11;;;;;;;6.70;6.00;;;;;;;28.49;100.00;153210.25;5114755;28;20187;-61
2022/08/09 05:40:38;;;;;;;5.72;5.53;;;;;;;28.76;100.00;153278.19;5114247;28;20245;-61
2022/08/09 05:43:06;;;;;;;6.00;5.32;;;;;;;28.95;100.00;153326.81;5114455;28;20199;-60
2022/08/09 05:45:33;;;;;;;6.80;5.15;;;;;;;29.28;100.00;153410.06;5114955;28;20693;-62
2022/08/09 05:48:00;;;;;;;5.70;5.30;;;;;;;29.96;100.00;153581.84;5114894;28;20185;-66
2022/08/09 05:50:28;;;;;;;4.70;4.40;;;;;;;31.40;100.00;153946.06;5115790;28;20577;-67
2022/08/09 05:52:56;;;;;;;5.30;4.93;;;;;;;32.94;100.00;154337.50;5114598;28;20637;-67
2022/08/09 05:55:23;;;;;;;6.80;4.80;;;;;;;33.22;94.81;154408.19;5114769;28;20829;-67
2022/08/09 05:57:51;;;;;;;5.75;4.78;;;;;;;32.78;98.36;154297.72;5114838;28;20248;-67
2022/08/09 06:00:18;;;;;;;6.55;4.68;;;;;;;32.80;96.03;154301.59;5114070;28;20210;-66
2022/08/09 06:02:45;;;;;;;5.35;4.90;;;;;;;32.47;99.76;154218.09;5114320;28;20187;-66
2022/08/09 06:05:13;;;;;;;4.93;4.53;;;;;;;32.10;100.00;154125.72;5096080;28;20707;-66
2022/08/09 06:07:41;;;;;;;5.28;4.75;;;;;;;31.77;100.00;154041.00;5114125;28;20191;-67
2022/08/09 06:10:09;;;;;;;9.88;4.50;;;;;;;30.62;100.00;153748.53;5114280;28;20199;-66
2022/08/09 06:12:36;;;;;;;6.45;5.57;;;;;;;30.65;100.00;153756.22;5114190;28;20235;-66
2022/08/09 06:15:05;;;;;;;6.22;5.25;;;;;;;30.40;100.00;153694.66;5114271;28;20187;-67
2022/08/09 06:17:32;;;;;;;5.13;4.55;;;;;;;30.17;100.00;153635.66;5096120;28;20191;-66
2022/08/09 06:19:59;;;;;;;5.75;5.20;;;;;;;30.47;100.00;153710.09;5113648;28;20629;-67
2022/08/09 06:22:26;;;;;;;5.13;4.53;;;;;;;30.71;100.00;153771.59;5113882;28;20236;-66
2022/08/09 06:24:55;;;;;;;4.47;4.28;;;;;;;30.54;100.00;153728.03;5113799;28;20191;-67
2022/08/09 06:27:21;;;;;;;5.05;4.85;;;;;;;30.66;100.00;153758.78;5113926;28;20548;-67
2022/08/09 06:29:49;;;;;;;5.25;4.82;;;;;;;30.89;100.00;153817.78;5113572;28;20222;-66
2022/08/09 06:32:16;;;;;;;8.98;4.88;;;;;;;31.23;100.00;153903.75;5113645;28;20184;-66
2022/08/09 06:34:43;;;;;;;7.50;4.55;;;;;;;31.64;100.00;154008.94;5113794;28;20298;-66
2022/08/09 06:37:13;;;;;;;5.32;4.85;;;;;;;31.93;98.86;154082.06;5113731;28;20284;-66
2022/08/09 06:39:40;;;;;;;6.80;4.90;;;;;;;32.20;96.92;154148.81;5113303;28;20207;-67
2022/08/09 06:42:08;;;;;;;4.90;4.60;;;;;;;32.22;96.24;154153.94;5095292;28;20213;-67
2022/08/09 06:44:35;;;;;;;5.10;4.68;;;;;;;32.36;96.52;154189.88;5113375;28;20215;-66
2022/08/09 06:47:03;;;;;;;4.78;4.57;;;;;;;32.55;92.43;154238.63;5113261;28;20225;-66
2022/08/09 06:49:30;;;;;;;4.55;4.30;;;;;;;33.24;88.46;154413.31;5113515;28;20236;-66
2022/08/09 06:51:57;;;;;;;4.57;4.38;;;;;;;33.37;84.50;154446.69;5113141;28;20190;-67
2022/08/09 06:54:24;;;;;;;7.97;4.90;;;;;;;33.51;82.59;154482.66;5112684;28;20711;-64
2022/08/09 06:56:51;;;;;;;6.78;6.43;;;;;;;33.66;82.19;154521.22;5113489;28;20604;-65
2022/08/09 06:59:19;;;;;;;5.28;4.90;;;;;;;33.28;84.13;154423.56;5113759;28;20204;-65
2022/08/09 07:01:46;;;;;;;5.28;4.65;;;;;;;33.30;80.53;154430.00;5113125;28;20191;-57
2022/08/09 07:04:14;;;;;;;4.38;3.97;;;;;;;32.89;81.98;154324.66;5113223;28;20230;-66
2022/08/09 07:06:41;;;;;;;5.05;4.30;;;;;;;32.94;83.24;154338.78;5113213;28;20179;-66
2022/08/09 07:09:08;;;;;;;4.55;4.25;;;;;;;32.98;83.13;154349.06;5113329;28;20189;-66
2022/08/09 07:11:35;;;;;;;4.63;4.20;;;;;;;33.05;86.57;154367.06;5113187;28;20638;-66
2022/08/09 07:14:03;;;;;;;4.80;4.40;;;;;;;33.38;81.57;154449.25;5113113;28;20347;-66
2022/08/09 07:16:32;;;;;;;4.40;4.20;;;;;;;33.40;81.44;154454.38;5113058;28;20248;-66
2022/08/09 07:18:59;;;;;;;5.28;4.30;;;;;;;33.61;77.67;154507.06;5113256;28;20187;-66
2022/08/09 07:21:27;;;;;;;4.63;3.70;;;;;;;33.42;76.17;154459.53;5113118;28;20554;-68
2022/08/09 07:23:54;;;;;;;4.28;4.07;;;;;;;33.35;72.50;154441.56;5094747;28;20191;-66
2022/08/09 07:26:21;;;;;;;4.40;4.10;;;;;;;33.72;72.97;154535.34;5094667;28;20192;-66
2022/08/09 07:28:48;;;;;;;4.22;3.85;;;;;;;33.40;73.06;154454.38;5112808;28;20314;-66
2022/08/09 07:31:15;;;;;;;5.03;3.95;;;;;;;33.75;71.15;154544.31;5113095;28;20240;-67
2022/08/09 07:33:44;;;;;;;4.43;3.60;;;;;;;33.90;67.92;154581.59;5112750;28;20275;-66
2022/08/09 07:36:13;;;;;;;4.20;3.30;;;;;;;34.03;65.14;154613.69;5112868;28;20194;-69
2022/08/09 07:38:40;;;;;;;3.10;2.90;;;;;;;33.68;54.24;154526.38;5112807;28;20179;-67
2022/08/09 07:41:08;;;;;;;2.83;2.63;;;;;;;33.32;55.23;154433.84;5112500;28;20291;-65
2022/08/09 07:43:35;;;;;;;3.50;2.95;;;;;;;33.71;58.00;154532.78;5112522;28;20183;-66
2022/08/09 07:46:02;;;;;;;3.30;3.17;;;;;;;33.99;57.85;154603.44;5112864;28;20625;-66
2022/08/09 07:48:32;;;;;;;5.10;3.10;;;;;;;33.42;57.25;154459.53;5112213;28;20274;-66
2022/08/09 07:51:04;;;;;;;4.10;2.88;;;;;;;33.89;56.99;154579.03;5112437;28;20179;-66
2022/08/09 07:53:31;;;;;;;6.70;3.33;;;;;;;34.14;54.25;154643.25;5113208;28;20179;-67
2022/08/09 07:55:58;;;;;;;3.13;2.83;;;;;;;33.87;51.31;154573.84;5112506;28;20188;-67
2022/08/09 07:58:25;;;;;;;2.88;2.67;;;;;;;34.13;52.83;154639.38;5112745;28;20264;-66
2022/08/09 08:00:52;;;;;;;5.85;3.00;;;;;;;34.44;54.36;154719.06;5112833;28;20571;-66
2022/08/09 08:03:22;;;;;;;3.65;2.85;;;;;;;34.91;51.45;154837.34;5112261;28;20183;-66
2022/08/09 08:05:49;;;;;;;12.23;3.13;;;;;;;35.35;49.98;154949.22;5112533;28;20179;-66
2022/08/09 08:08:17;;;;;;;2.70;2.58;;;;;;;35.56;47.02;155004.44;5112922;28;20202;-67
2022/08/09 08:10:44;;;;;;;3.28;3.05;;;;;;;35.86;46.83;155079.09;5111949;28;20229;-66
2022/08/09 08:13:11;;;;;;;2.50;2.40;;;;;;;35.14;43.38;154896.44;5111975;28;20264;-65
2022/08/09 08:15:40;;;;;;;2.88;2.70;;;;;;;35.36;45.90;154953.03;5112131;28;20190;-66
2022/08/09 08:18:06;;;;;;;5.40;4.88;;;;;;;34.97;46.11;154854.03;5112193;28;20251;-69
2022/08/09 08:20:34;;;;;;;2.80;2.60;;;;;;;34.53;46.48;154742.22;5112683;28;20291;-67
2022/08/09 08:23:03;;;;;;;2.55;2.40;;;;;;;34.49;42.54;154731.94;5112057;28;20298;-67
2022/08/09 08:25:32;;;;;;;5.05;2.10;;;;;;;34.56;38.14;154749.91;5112014;28;20183;-67
2022/08/09 08:27:59;;;;;;;4.53;2.25;;;;;;;34.62;36.03;154764.06;5111859;28;20180;-66
2022/08/09 08:30:26;;;;;;;2.40;2.20;;;;;;;34.52;35.86;154739.63;5111955;28;20184;-65
2022/08/09 08:32:56;;;;;;;4.38;2.30;;;;;;;34.73;35.92;154793.66;5111599;28;20195;-66
2022/08/09 08:35:23;;;;;;;4.03;1.85;;;;;;;34.48;35.18;154728.06;5112108;28;20197;-65
2022/08/09 08:37:51;;;;;;;5.22;2.30;;;;;;;33.88;36.85;154576.44;5111745;28;20183;-67
2022/08/09 08:40:19;;;;;;;6.15;2.33;;;;;;;33.92;39.43;154588.00;5112026;28;20203;-67
2022/08/09 08:42:47;;;;;;;2.90;2.70;;;;;;;33.99;39.80;154604.72;5111730;28;20215;-66
2022/08/09 08:45:16;;;;;;;4.82;2.60;;;;;;;33.95;40.77;154595.69;5111654;28;20194;-66
2022/08/09 08:47:45;;;;;;;3.70;2.72;;;;;;;33.85;39.56;154570.03;5111900;28;20183;-66
2022/08/09 08:50:14;;;;;;;2.97;2.72;;;;;;;34.17;40.80;154649.69;5111820;28;20186;-66
2022/08/09 08:52:41;;;;;;;2.80;2.60;;;;;;;34.14;38.99;154641.94;5112085;28;20236;-66
2022/08/09 08:55:10;;;;;;;5.30;2.45;;;;;;;34.23;39.11;154665.13;5093389;28;20180;-65
2022/08/09 08:57:37;;;;;;;7.88;2.58;;;;;;;34.42;40.09;154713.91;5111893;28;20192;-67
2022/08/09 09:00:10;;;;;;;6.07;2.38;;;;;;;34.47;40.29;154725.47;5111520;28;20239;-66
2022/08/09 09:02:38;;;;;;;7.80;2.85;;;;;;;34.87;40.52;154828.34;5111832;28;20275;-66
2022/08/09 09:05:08;;;;;;;2.90;2.80;;;;;;;34.31;42.17;154685.69;5111809;28;20236;-66
2022/08/09 09:07:35;;;;;;;11.00;2.63;;;;;;;34.77;41.46;154803.91;5086728;28;20237;-66
2022/08/09 09:10:07;;;;;;;7.65;2.60;;;;;;;35.13;40.51;154893.91;5095356;28;20196;-66
2022/08/09 09:12:35;;;;;;;3.80;2.50;;;;;;;35.38;40.69;154956.91;5092938;28;20602;-66
2022/08/09 09:15:03;;;;;;;2.83;2.72;;;;;;;35.03;40.77;154869.47;5106123;28;20199;-66
2022/08/09 09:17:31;;;;;;;4.65;2.78;;;;;;;34.75;39.67;154798.81;5095226;28;20180;-66
2022/08/09 09:19:58;;;;;;;2.92;2.80;;;;;;;34.48;41.16;154728.06;5094751;28;20617;-66
2022/08/09 09:22:25;;;;;;;2.90;2.42;;;;;;;34.43;39.85;154716.50;5094533;28;20237;-66
2022/08/09 09:24:53;;;;;;;3.10;2.40;;;;;;;34.39;37.58;154706.22;5094928;28;20558;-66
2022/08/09 09:27:24;;;;;;;2.60;2.40;;;;;;;34.32;38.29;154688.25;5095159;28;20188;-66
2022/08/09 09:29:51;;;;;;;5.43;3.20;;;;;;;34.71;41.27;154788.47;5094672;28;20196;-66
2022/08/09 09:32:22;;;;;;;3.85;3.17;;;;;;;35.10;39.92;154886.16;5101034;28;20579;-67
2022/08/09 09:35:05;;;;;;;2.30;2.20;;;;;;;35.42;39.83;154968.50;5106658;28;20196;-62
2022/08/09 09:37:32;;;;;;;2.85;2.65;;;;;;;35.43;37.21;154971.06;5100009;28;20294;-61
2022/08/09 09:40:00;;;;;;;2.72;2.63;;;;;;;35.13;36.89;154893.91;5094890;28;20180;-63
2022/08/09 09:42:29;;;;;;;2.47;2.28;;;;;;;35.22;36.32;154917.09;5095189;28;20200;-62
2022/08/09 09:44:58;;;;;;;13.00;2.95;;;;;;;35.17;35.41;154904.22;5094812;28;20184;-61
2022/08/09 09:47:27;;;;;;;14.73;2.60;;;;;;;35.35;34.36;154950.47;5095188;28;20218;-62
2022/08/09 09:49:56;;;;;;;2.67;2.20;;;;;;;35.52;35.42;154994.16;5095718;28;20686;-61
2022/08/09 09:52:26;;;;;;;4.13;2.78;;;;;;;35.34;32.91;154946.63;5104847;28;20589;-61
2022/08/09 09:55:01;;;;;;;2.72;2.53;;;;;;;35.28;32.30;154932.47;5114813;28;20192;-61
2022/08/09 09:57:29;;;;;;;3.00;1.70;;;;;;;35.39;31.33;154960.78;5114862;28;20195;-62
2022/08/09 09:59:56;;;;;;;2.63;1.90;;;;;;;35.74;31.96;155049.50;5112565;28;20620;-61
2022/08/09 10:02:25;;;;;;;3.55;2.20;;;;;;;35.12;31.42;154891.31;5099280;28;20196;-62
2022/08/09 10:05:04;;;;;;;2.50;2.30;;;;;;;34.95;31.89;154847.63;5096828;28;20203;-62
2022/08/09 10:07:34;;;;;;;4.50;1.83;;;;;;;35.09;30.15;154884.91;5096037;28;20195;-62
2022/08/09 10:10:01;;;;;;;2.20;1.90;;;;;;;35.14;29.90;154896.44;5094082;28;20666;-62
2022/08/09 10:12:31;;;;;;;2.95;1.95;;;;;;;35.11;27.96;154890.03;5076486;28;20180;-63
2022/08/09 10:15:11;;;;;;;2.97;2.17;;;;;;;35.20;28.96;154911.91;5095190;28;20191;-64
2022/08/09 10:17:43;;;;;;;1.90;1.80;;;;;;;35.21;29.11;154914.50;5100672;28;20203;-64
2022/08/09 10:20:26;;;;;;;4.28;1.95;;;;;;;34.90;29.03;154836.03;5108917;28;20206;-61
2022/08/09 10:22:59;;;;;;;2.40;1.80;;;;;;;34.82;29.85;154816.78;5093910;28;20203;-62
2022/08/09 10:25:28;;;;;;;1.95;1.83;;;;;;;35.25;30.07;154924.78;5094134;28;20573;-61
2022/08/09 10:27:56;;;;;;;1.83;1.73;;;;;;;34.99;30.68;154859.19;5093564;28;20240;-62
2022/08/09 10:30:24;;;;;;;5.65;2.13;;;;;;;35.35;29.60;154950.47;5093802;28;20211;-62
2022/08/09 10:32:54;;;;;;;2.78;1.90;;;;;;;35.39;29.19;154960.78;5093777;28;20638;-61
2022/08/09 10:35:21;;;;;;;1.67;1.58;;;;;;;35.38;28.84;154958.22;5093780;28;20227;-62
2022/08/09 10:37:49;;;;;;;2.17;1.95;;;;;;;35.11;29.16;154890.03;5093939;28;20607;-62
2022/08/09 10:40:17;;;;;;;2.10;1.70;;;;;;;35.12;28.14;154891.31;5093090;28;20192;-60
2022/08/09 10:42:44;;;;;;;4.60;1.83;;;;;;;35.33;28.52;154945.34;5093454;28;20261;-61
2022/08/09 10:45:13;;;;;;;4.28;1.90;;;;;;;35.10;27.79;154886.16;5093015;28;20184;-62
2022/08/09 10:48:07;;;;;;;4.28;1.83;;;;;;;35.18;28.80;154908.06;5093203;28;20567;-62
2022/08/09 10:53:42;;;;;;;1.50;1.40;;;;;;;35.18;27.62;154908.06;5093434;28;20187;-61
2022/08/09 10:56:20;;;;;;;5.32;1.70;;;;;;;35.27;27.62;154931.19;5093237;28;20194;-61
2022/08/09 10:58:47;;;;;;;2.65;1.70;;;;;;;35.43;27.23;154969.78;5093368;28;20235;-63
2022/08/09 11:01:40;;;;;;;5.65;2.00;;;;;;;35.05;27.16;154874.59;5093208;28;20216;-60
2022/08/09 11:04:19;;;;;;;2.15;1.80;;;;;;;35.30;27.19;154937.66;5093444;28;20249;-61
2022/08/09 11:06:48;;;;;;;5.32;2.20;;;;;;;35.18;26.50;154906.81;5092689;28;20278;-60
2022/08/09 11:09:18;;;;;;;6.75;1.98;;;;;;;35.04;26.72;154872.03;5092708;28;20180;-61
2022/08/09 11:12:11;;;;;;;7.43;2.03;;;;;;;35.12;26.39;154892.59;5092517;28;20336;-60
2022/08/09 11:14:40;;;;;;;1.95;1.45;;;;;;;34.91;26.87;154837.34;5077715;28;20369;-61
2022/08/09 11:17:49;;;;;;;3.35;2.25;;;;;;;35.21;26.64;154915.78;5092765;28;20206;-61
2022/08/09 11:20:18;;;;;;;1.90;1.45;;;;;;;35.04;26.33;154872.03;5091109;28;20210;-60
2022/08/09 11:23:01;;;;;;;6.35;1.73;;;;;;;34.82;25.75;154816.78;5109529;28;20209;-62
2022/08/09 11:25:37;;;;;;;2.13;1.80;;;;;;;35.18;26.30;154908.06;5098483;28;20279;-61
2022/08/09 11:28:32;;;;;;;5.00;1.80;;;;;;;34.92;25.91;154839.91;5092609;28;20180;-61
2022/08/09 11:30:59;;;;;;;3.33;1.65;;;;;;;34.87;25.85;154827.06;5106646;28;20200;-63
2022/08/09 11:33:43;;;;;;;3.95;1.65;;;;;;;34.80;25.65;154811.63;5113003;28;20260;-62